sensor_id;sensor_type;location;lat;lon;timestamp;pressure;altitude;pressure_sealevel;temperature;humidity
19783;BME280;10051;40.294;-3.754;2023-02-21T00:02:10;94507.50;;;12.93;37.50
19783;BME280;10051;40.294;-3.754;2023-02-21T00:04:54;94538.19;;;13.08;37.65
19783;BME280;10051;40.294;-3.754;2023-02-21T00:07:38;94505.50;;;12.85;37.73
19783;BME280;10051;40.294;-3.754;2023-02-21T00:10:22;94522.84;;;12.91;38.05
19783;BME280;10051;40.294;-3.754;2023-02-21T00:13:06;94513.41;;;12.85;38.07
19783;BME280;10051;40.294;-3.754;2023-02-21T00:15:50;94533.53;;;13.00;37.89
19783;BME280;10051;40.294;-3.754;2023-02-21T00:18:35;94546.88;;;13.08;38.13
19783;BME280;10051;40.294;-3.754;2023-02-21T00:21:20;94521.25;;;12.90;38.30
19783;BME280;10051;40.294;-3.754;2023-02-21T00:24:05;94542.97;;;13.06;38.08
19783;BME280;10051;40.294;-3.754;2023-02-21T00:26:49;94546.59;;;13.10;38.30
19783;BME280;10051;40.294;-3.754;2023-02-21T00:29:32;94528.31;;;12.94;38.25
19783;BME280;10051;40.294;-3.754;2023-02-21T00:32:16;94546.72;;;13.00;38.50
19783;BME280;10051;40.294;-3.754;2023-02-21T00:35:00;94532.81;;;12.94;38.54
19783;BME280;10051;40.294;-3.754;2023-02-21T00:37:51;94553.16;;;13.13;38.28
19783;BME280;10051;40.294;-3.754;2023-02-21T00:40:35;94523.47;;;13.02;38.46
19783;BME280;10051;40.294;-3.754;2023-02-21T00:43:19;94501.34;;;12.98;38.29
19783;BME280;10051;40.294;-3.754;2023-02-21T00:46:10;94537.13;;;13.28;38.21
19783;BME280;10051;40.294;-3.754;2023-02-21T00:48:54;94511.22;;;13.11;38.21
19783;BME280;10051;40.294;-3.754;2023-02-21T00:51:38;94506.28;;;13.04;38.95
19783;BME280;10051;40.294;-3.754;2023-02-21T00:54:22;94499.41;;;12.84;38.69
19783;BME280;10051;40.294;-3.754;2023-02-21T00:57:06;94511.03;;;12.83;38.89
19783;BME280;10051;40.294;-3.754;2023-02-21T00:59:50;94504.03;;;12.73;39.04
19783;BME280;10051;40.294;-3.754;2023-02-21T01:02:34;94508.63;;;12.87;39.07
19783;BME280;10051;40.294;-3.754;2023-02-21T01:05:18;94476.72;;;12.64;38.84
19783;BME280;10051;40.294;-3.754;2023-02-21T01:08:02;94516.75;;;12.90;39.13
19783;BME280;10051;40.294;-3.754;2023-02-21T01:10:46;94519.06;;;12.97;38.87
19783;BME280;10051;40.294;-3.754;2023-02-21T01:13:30;94525.25;;;13.06;39.26
19783;BME280;10051;40.294;-3.754;2023-02-21T01:16:14;94510.06;;;12.98;39.12
19783;BME280;10051;40.294;-3.754;2023-02-21T01:18:58;94500.84;;;12.76;39.42
19783;BME280;10051;40.294;-3.754;2023-02-21T01:21:42;94455.31;;;12.46;39.25
19783;BME280;10051;40.294;-3.754;2023-02-21T01:24:26;94506.56;;;12.84;39.41
19783;BME280;10051;40.294;-3.754;2023-02-21T01:27:10;94520.69;;;12.93;39.07
19783;BME280;10051;40.294;-3.754;2023-02-21T01:29:53;94492.25;;;12.46;39.69
19783;BME280;10051;40.294;-3.754;2023-02-21T01:32:37;94529.47;;;12.64;40.04
19783;BME280;10051;40.294;-3.754;2023-02-21T01:35:21;94454.78;;;12.01;39.95
19783;BME280;10051;40.294;-3.754;2023-02-21T01:38:05;94514.09;;;12.23;40.54
19783;BME280;10051;40.294;-3.754;2023-02-21T01:40:49;94530.38;;;12.30;40.39
19783;BME280;10051;40.294;-3.754;2023-02-21T01:43:33;94526.22;;;12.24;40.78
19783;BME280;10051;40.294;-3.754;2023-02-21T01:46:20;94520.44;;;12.22;40.53
19783;BME280;10051;40.294;-3.754;2023-02-21T01:49:12;94508.38;;;12.15;40.83
19783;BME280;10051;40.294;-3.754;2023-02-21T01:51:57;94524.28;;;12.10;41.24
19783;BME280;10051;40.294;-3.754;2023-02-21T01:54:46;94513.81;;;12.00;41.33
19783;BME280;10051;40.294;-3.754;2023-02-21T01:57:31;94494.75;;;11.79;41.94
19783;BME280;10051;40.294;-3.754;2023-02-21T02:00:16;94510.69;;;11.93;41.61
19783;BME280;10051;40.294;-3.754;2023-02-21T02:03:06;94499.97;;;11.84;41.71
19783;BME280;10051;40.294;-3.754;2023-02-21T02:05:54;94502.31;;;11.85;41.61
19783;BME280;10051;40.294;-3.754;2023-02-21T02:08:39;94484.97;;;11.79;41.76
19783;BME280;10051;40.294;-3.754;2023-02-21T02:14:43;94492.63;;;11.81;41.87
19783;BME280;10051;40.294;-3.754;2023-02-21T02:35:04;94490.59;;;12.02;41.80
19783;BME280;10051;40.294;-3.754;2023-02-21T02:38:16;94459.75;;;11.73;42.18
19783;BME280;10051;40.294;-3.754;2023-02-21T02:40:59;94468.72;;;11.72;42.32
19783;BME280;10051;40.294;-3.754;2023-02-21T02:49:06;94479.81;;;11.69;42.84
19783;BME280;10051;40.294;-3.754;2023-02-21T02:51:34;94489.56;;;11.68;42.72
19783;BME280;10051;40.294;-3.754;2023-02-21T02:54:00;94464.19;;;11.48;42.77
19783;BME280;10051;40.294;-3.754;2023-02-21T02:56:26;94488.56;;;11.59;43.05
19783;BME280;10051;40.294;-3.754;2023-02-21T02:58:53;94487.25;;;11.62;42.89
19783;BME280;10051;40.294;-3.754;2023-02-21T03:12:19;94491.06;;;11.45;43.55
19783;BME280;10051;40.294;-3.754;2023-02-21T03:14:54;94444.50;;;11.06;43.77
19783;BME280;10051;40.294;-3.754;2023-02-21T03:17:25;94426.66;;;10.97;43.79
19783;BME280;10051;40.294;-3.754;2023-02-21T03:19:53;94482.69;;;11.38;43.88
19783;BME280;10051;40.294;-3.754;2023-02-21T03:22:23;94489.81;;;11.37;43.59
19783;BME280;10051;40.294;-3.754;2023-02-21T03:24:52;94473.56;;;11.25;43.94
19783;BME280;10051;40.294;-3.754;2023-02-21T03:27:19;94425.66;;;10.88;44.09
19783;BME280;10051;40.294;-3.754;2023-02-21T03:29:46;94383.28;;;10.50;44.27
19783;BME280;10051;40.294;-3.754;2023-02-21T03:32:21;94431.47;;;10.85;44.22
19783;BME280;10051;40.294;-3.754;2023-02-21T03:34:49;94423.81;;;10.94;44.57
19783;BME280;10051;40.294;-3.754;2023-02-21T03:37:30;94391.13;;;10.60;44.38
19783;BME280;10051;40.294;-3.754;2023-02-21T03:39:56;94403.72;;;10.68;44.66
19783;BME280;10051;40.294;-3.754;2023-02-21T03:42:22;94404.75;;;10.73;44.61
19783;BME280;10051;40.294;-3.754;2023-02-21T03:44:47;94401.66;;;10.60;44.82
19783;BME280;10051;40.294;-3.754;2023-02-21T03:47:13;94458.25;;;10.92;44.73
19783;BME280;10051;40.294;-3.754;2023-02-21T03:49:38;94464.56;;;10.96;44.57
19783;BME280;10051;40.294;-3.754;2023-02-21T03:52:04;94355.03;;;10.21;44.91
19783;BME280;10051;40.294;-3.754;2023-02-21T03:54:30;94328.84;;;10.05;44.44
19783;BME280;10051;40.294;-3.754;2023-02-21T03:56:55;94351.91;;;10.14;44.76
19783;BME280;10051;40.294;-3.754;2023-02-21T03:59:21;94458.81;;;10.89;44.54
19783;BME280;10051;40.294;-3.754;2023-02-21T04:01:46;94436.06;;;10.64;44.81
19783;BME280;10051;40.294;-3.754;2023-02-21T04:04:12;94436.28;;;10.78;44.57
19783;BME280;10051;40.294;-3.754;2023-02-21T04:06:37;94379.06;;;10.54;44.20
19783;BME280;10051;40.294;-3.754;2023-02-21T04:09:03;94416.97;;;10.93;43.80
19783;BME280;10051;40.294;-3.754;2023-02-21T04:11:30;94425.28;;;11.05;43.77
19783;BME280;10051;40.294;-3.754;2023-02-21T04:13:56;94400.84;;;10.99;43.57
19783;BME280;10051;40.294;-3.754;2023-02-21T04:16:21;94442.50;;;11.27;43.59
19783;BME280;10051;40.294;-3.754;2023-02-21T04:18:47;94419.72;;;11.12;43.44
19783;BME280;10051;40.294;-3.754;2023-02-21T04:21:16;94417.59;;;11.14;43.14
19783;BME280;10051;40.294;-3.754;2023-02-21T04:23:42;94405.75;;;11.11;43.54
19783;BME280;10051;40.294;-3.754;2023-02-21T04:26:08;94410.88;;;10.97;43.23
19783;BME280;10051;40.294;-3.754;2023-02-21T04:28:33;94365.94;;;10.49;44.47
19783;BME280;10051;40.294;-3.754;2023-02-21T04:30:59;94460.63;;;10.94;44.52
19783;BME280;10051;40.294;-3.754;2023-02-21T04:33:24;94409.59;;;10.50;44.63
19783;BME280;10051;40.294;-3.754;2023-02-21T04:35:50;94328.13;;;9.89;45.04
19783;BME280;10051;40.294;-3.754;2023-02-21T04:38:16;94470.66;;;10.86;45.02
19783;BME280;10051;40.294;-3.754;2023-02-21T04:40:41;94474.06;;;10.87;45.14
19783;BME280;10051;40.294;-3.754;2023-02-21T04:43:07;94472.47;;;10.91;45.00
19783;BME280;10051;40.294;-3.754;2023-02-21T04:45:33;94373.66;;;10.30;44.88
19783;BME280;10051;40.294;-3.754;2023-02-21T04:47:58;94424.25;;;10.61;45.06
19783;BME280;10051;40.294;-3.754;2023-02-21T04:50:24;94394.94;;;10.33;45.05
19783;BME280;10051;40.294;-3.754;2023-02-21T04:52:49;94415.34;;;10.57;44.97
19783;BME280;10051;40.294;-3.754;2023-02-21T04:55:15;94398.53;;;10.53;44.96
19783;BME280;10051;40.294;-3.754;2023-02-21T04:57:41;94407.44;;;10.57;44.68
19783;BME280;10051;40.294;-3.754;2023-02-21T05:00:07;94480.28;;;11.07;44.48
19783;BME280;10051;40.294;-3.754;2023-02-21T05:02:33;94421.09;;;10.59;45.10
19783;BME280;10051;40.294;-3.754;2023-02-21T05:04:59;94438.75;;;10.59;45.04
19783;BME280;10051;40.294;-3.754;2023-02-21T05:07:24;94467.56;;;10.74;45.47
19783;BME280;10051;40.294;-3.754;2023-02-21T05:09:50;94333.41;;;9.79;45.19
19783;BME280;10051;40.294;-3.754;2023-02-21T05:12:16;94368.31;;;9.90;45.66
19783;BME280;10051;40.294;-3.754;2023-02-21T05:14:41;94357.31;;;9.77;46.18
19783;BME280;10051;40.294;-3.754;2023-02-21T05:17:07;94486.34;;;10.57;46.32
19783;BME280;10051;40.294;-3.754;2023-02-21T05:19:33;94414.50;;;10.01;47.13
19783;BME280;10051;40.294;-3.754;2023-02-21T05:22:01;94484.28;;;10.44;46.95
19783;BME280;10051;40.294;-3.754;2023-02-21T05:24:29;94448.03;;;10.30;46.58
19783;BME280;10051;40.294;-3.754;2023-02-21T05:26:55;94463.75;;;10.51;46.12
19783;BME280;10051;40.294;-3.754;2023-02-21T05:29:22;94417.31;;;10.20;46.03
19783;BME280;10051;40.294;-3.754;2023-02-21T05:31:47;94348.94;;;9.75;45.98
19783;BME280;10051;40.294;-3.754;2023-02-21T05:34:13;94450.09;;;10.44;46.03
19783;BME280;10051;40.294;-3.754;2023-02-21T05:36:39;94470.31;;;10.59;46.10
19783;BME280;10051;40.294;-3.754;2023-02-21T05:39:06;94428.59;;;10.31;46.09
19783;BME280;10051;40.294;-3.754;2023-02-21T05:41:32;94486.53;;;10.71;45.89
19783;BME280;10051;40.294;-3.754;2023-02-21T05:43:59;94465.81;;;10.59;45.99
19783;BME280;10051;40.294;-3.754;2023-02-21T05:46:28;94464.28;;;10.48;46.51
19783;BME280;10051;40.294;-3.754;2023-02-21T05:48:55;94402.69;;;10.04;46.61
19783;BME280;10051;40.294;-3.754;2023-02-21T05:51:21;94397.63;;;10.18;46.21
19783;BME280;10051;40.294;-3.754;2023-02-21T05:53:47;94424.38;;;10.35;46.28
19783;BME280;10051;40.294;-3.754;2023-02-21T05:56:13;94477.66;;;10.56;46.24
19783;BME280;10051;40.294;-3.754;2023-02-21T05:58:39;94324.88;;;9.42;46.73
19783;BME280;10051;40.294;-3.754;2023-02-21T06:01:05;94435.78;;;10.10;46.96
19783;BME280;10051;40.294;-3.754;2023-02-21T06:03:30;94438.09;;;10.17;46.71
19783;BME280;10051;40.294;-3.754;2023-02-21T06:05:56;94449.34;;;10.27;46.62
19783;BME280;10051;40.294;-3.754;2023-02-21T06:08:21;94467.97;;;10.41;47.19
19783;BME280;10051;40.294;-3.754;2023-02-21T06:10:47;94431.78;;;10.23;46.96
19783;BME280;10051;40.294;-3.754;2023-02-21T06:13:13;94484.75;;;10.61;46.55
19783;BME280;10051;40.294;-3.754;2023-02-21T06:15:38;94450.06;;;10.49;46.39
19783;BME280;10051;40.294;-3.754;2023-02-21T06:18:04;94401.53;;;10.25;46.11
19783;BME280;10051;40.294;-3.754;2023-02-21T06:20:29;94495.09;;;10.92;45.76
19783;BME280;10051;40.294;-3.754;2023-02-21T06:22:55;94479.63;;;10.85;45.89
19783;BME280;10051;40.294;-3.754;2023-02-21T06:25:21;94488.72;;;11.04;45.16
19783;BME280;10051;40.294;-3.754;2023-02-21T06:27:46;94455.25;;;10.69;45.52
19783;BME280;10051;40.294;-3.754;2023-02-21T06:30:13;94444.59;;;10.45;46.21
19783;BME280;10051;40.294;-3.754;2023-02-21T06:32:41;94445.66;;;10.44;46.23
19783;BME280;10051;40.294;-3.754;2023-02-21T06:35:08;94484.50;;;10.58;46.86
19783;BME280;10051;40.294;-3.754;2023-02-21T06:37:34;94466.69;;;10.34;47.43
19783;BME280;10051;40.294;-3.754;2023-02-21T06:39:59;94443.03;;;10.29;47.59
19783;BME280;10051;40.294;-3.754;2023-02-21T06:42:25;94389.25;;;10.10;47.27
19783;BME280;10051;40.294;-3.754;2023-02-21T06:44:51;94472.06;;;10.74;47.16
19783;BME280;10051;40.294;-3.754;2023-02-21T06:47:17;94421.91;;;10.60;46.85
19783;BME280;10051;40.294;-3.754;2023-02-21T06:49:43;94423.66;;;10.75;46.42
19783;BME280;10051;40.294;-3.754;2023-02-21T06:52:08;94409.47;;;10.70;45.95
19783;BME280;10051;40.294;-3.754;2023-02-21T06:54:34;94468.94;;;11.06;45.80
19783;BME280;10051;40.294;-3.754;2023-02-21T06:57:00;94444.19;;;10.73;46.25
19783;BME280;10051;40.294;-3.754;2023-02-21T06:59:35;94376.03;;;10.31;46.02
19783;BME280;10051;40.294;-3.754;2023-02-21T07:02:00;94378.59;;;10.47;46.11
19783;BME280;10051;40.294;-3.754;2023-02-21T07:04:27;94391.41;;;10.59;46.13
19783;BME280;10051;40.294;-3.754;2023-02-21T07:06:52;94411.59;;;10.68;46.31
19783;BME280;10051;40.294;-3.754;2023-02-21T07:09:18;94434.69;;;10.77;46.58
19783;BME280;10051;40.294;-3.754;2023-02-21T07:11:44;94408.69;;;10.70;46.79
19783;BME280;10051;40.294;-3.754;2023-02-21T07:14:11;94369.09;;;10.51;46.25
19783;BME280;10051;40.294;-3.754;2023-02-21T07:16:37;94412.91;;;10.66;46.38
19783;BME280;10051;40.294;-3.754;2023-02-21T07:19:02;94365.56;;;10.16;47.01
19783;BME280;10051;40.294;-3.754;2023-02-21T07:21:28;94399.75;;;10.16;47.17
19783;BME280;10051;40.294;-3.754;2023-02-21T07:23:53;94458.00;;;10.44;47.78
19783;BME280;10051;40.294;-3.754;2023-02-21T07:26:19;94398.22;;;9.99;48.16
19783;BME280;10051;40.294;-3.754;2023-02-21T07:28:47;94411.06;;;10.11;47.87
19783;BME280;10051;40.294;-3.754;2023-02-21T07:31:13;94413.63;;;10.21;47.72
19783;BME280;10051;40.294;-3.754;2023-02-21T07:33:38;94437.22;;;10.37;47.33
19783;BME280;10051;40.294;-3.754;2023-02-21T07:36:04;94419.38;;;10.29;47.67
19783;BME280;10051;40.294;-3.754;2023-02-21T07:38:30;94473.19;;;10.57;48.06
19783;BME280;10051;40.294;-3.754;2023-02-21T07:40:58;94477.16;;;10.54;47.88
19783;BME280;10051;40.294;-3.754;2023-02-21T07:43:25;94491.09;;;10.50;48.37
19783;BME280;10051;40.294;-3.754;2023-02-21T07:45:51;94491.56;;;10.67;47.84
19783;BME280;10051;40.294;-3.754;2023-02-21T07:48:16;94488.91;;;10.73;47.59
19783;BME280;10051;40.294;-3.754;2023-02-21T07:50:43;94432.22;;;10.40;47.33
19783;BME280;10051;40.294;-3.754;2023-02-21T07:53:09;94336.56;;;9.81;47.69
19783;BME280;10051;40.294;-3.754;2023-02-21T07:55:35;94412.81;;;10.31;47.25
19783;BME280;10051;40.294;-3.754;2023-02-21T07:58:01;94496.66;;;10.93;47.28
19783;BME280;10051;40.294;-3.754;2023-02-21T08:00:27;94447.19;;;10.55;47.31
19783;BME280;10051;40.294;-3.754;2023-02-21T08:02:52;94396.75;;;10.43;47.14
19783;BME280;10051;40.294;-3.754;2023-02-21T08:05:19;94508.91;;;11.13;46.55
19783;BME280;10051;40.294;-3.754;2023-02-21T08:07:46;94480.75;;;11.14;46.38
19783;BME280;10051;40.294;-3.754;2023-02-21T08:10:17;94434.09;;;10.85;46.09
19783;BME280;10051;40.294;-3.754;2023-02-21T08:12:43;94436.81;;;10.75;46.20
19783;BME280;10051;40.294;-3.754;2023-02-21T08:15:09;94487.34;;;11.11;46.42
19783;BME280;10051;40.294;-3.754;2023-02-21T08:17:35;94389.63;;;10.38;46.55
19783;BME280;10051;40.294;-3.754;2023-02-21T08:20:01;94395.66;;;10.49;45.83
19783;BME280;10051;40.294;-3.754;2023-02-21T08:22:26;94410.56;;;10.64;45.97
19783;BME280;10051;40.294;-3.754;2023-02-21T08:24:52;94510.91;;;11.32;45.90
19783;BME280;10051;40.294;-3.754;2023-02-21T08:27:18;94508.47;;;11.41;46.02
19783;BME280;10051;40.294;-3.754;2023-02-21T08:29:43;94393.06;;;10.84;49.47
19783;BME280;10051;40.294;-3.754;2023-02-21T08:32:09;94503.06;;;11.62;52.23
19783;BME280;10051;40.294;-3.754;2023-02-21T08:34:35;94483.19;;;11.40;53.59
19783;BME280;10051;40.294;-3.754;2023-02-21T08:37:01;94426.75;;;11.22;56.53
19783;BME280;10051;40.294;-3.754;2023-02-21T08:39:31;94447.59;;;11.13;57.89
19783;BME280;10051;40.294;-3.754;2023-02-21T08:41:57;94401.38;;;11.01;57.31
19783;BME280;10051;40.294;-3.754;2023-02-21T08:44:22;94440.34;;;11.34;56.38
19783;BME280;10051;40.294;-3.754;2023-02-21T08:46:48;94386.28;;;11.12;55.77
19783;BME280;10051;40.294;-3.754;2023-02-21T08:49:14;94437.72;;;11.64;55.55
19783;BME280;10051;40.294;-3.754;2023-02-21T08:51:40;94406.47;;;11.52;56.14
19783;BME280;10051;40.294;-3.754;2023-02-21T08:54:06;94393.00;;;11.58;55.77
19783;BME280;10051;40.294;-3.754;2023-02-21T08:56:32;94358.91;;;11.43;53.98
19783;BME280;10051;40.294;-3.754;2023-02-21T08:58:58;94390.66;;;11.52;54.91
19783;BME280;10051;40.294;-3.754;2023-02-21T09:01:33;94477.72;;;11.95;53.54
19783;BME280;10051;40.294;-3.754;2023-02-21T09:04:00;94481.28;;;11.80;55.49
19783;BME280;10051;40.294;-3.754;2023-02-21T09:06:26;94390.31;;;11.05;56.49
19783;BME280;10051;40.294;-3.754;2023-02-21T09:08:51;94482.50;;;11.64;54.44
19783;BME280;10051;40.294;-3.754;2023-02-21T09:11:17;94382.19;;;11.01;54.08
19783;BME280;10051;40.294;-3.754;2023-02-21T09:13:43;94462.06;;;11.50;53.52
19783;BME280;10051;40.294;-3.754;2023-02-21T09:16:12;94503.97;;;11.76;56.42
19783;BME280;10051;40.294;-3.754;2023-02-21T09:18:38;94345.78;;;10.79;63.69
19783;BME280;10051;40.294;-3.754;2023-02-21T09:21:08;94493.91;;;11.83;56.24
19783;BME280;10051;40.294;-3.754;2023-02-21T09:23:34;94494.59;;;11.94;54.65
19783;BME280;10051;40.294;-3.754;2023-02-21T09:25:59;94486.91;;;11.98;55.44
19783;BME280;10051;40.294;-3.754;2023-02-21T09:28:25;94494.13;;;12.16;57.64
19783;BME280;10051;40.294;-3.754;2023-02-21T09:30:51;94413.34;;;11.77;54.34
19783;BME280;10051;40.294;-3.754;2023-02-21T09:33:17;94507.44;;;12.55;51.03
19783;BME280;10051;40.294;-3.754;2023-02-21T09:35:42;94374.06;;;11.81;52.64
19783;BME280;10051;40.294;-3.754;2023-02-21T09:38:08;94442.47;;;12.15;49.72
19783;BME280;10051;40.294;-3.754;2023-02-21T09:40:43;94508.81;;;12.71;53.31
19783;BME280;10051;40.294;-3.754;2023-02-21T09:43:23;94416.00;;;12.01;50.66
19783;BME280;10051;40.294;-3.754;2023-02-21T09:45:55;94527.38;;;12.85;49.08
19783;BME280;10051;40.294;-3.754;2023-02-21T09:48:23;94458.31;;;12.59;48.58
19783;BME280;10051;40.294;-3.754;2023-02-21T09:50:56;94516.25;;;13.07;49.21
19783;BME280;10051;40.294;-3.754;2023-02-21T09:53:26;94515.19;;;13.28;48.23
19783;BME280;10051;40.294;-3.754;2023-02-21T09:56:05;94460.41;;;12.81;47.05
19783;BME280;10051;40.294;-3.754;2023-02-21T09:58:41;94451.06;;;12.89;46.95
19783;BME280;10051;40.294;-3.754;2023-02-21T10:02:19;94529.00;;;13.44;44.01
19783;BME280;10051;40.294;-3.754;2023-02-21T10:05:01;94471.47;;;13.02;45.00
19783;BME280;10051;40.294;-3.754;2023-02-21T10:07:44;94514.84;;;13.34;45.83
19783;BME280;10051;40.294;-3.754;2023-02-21T10:10:37;94516.56;;;13.44;44.57
19783;BME280;10051;40.294;-3.754;2023-02-21T10:16:31;94515.91;;;13.52;44.19
19783;BME280;10051;40.294;-3.754;2023-02-21T10:21:33;94499.69;;;13.59;44.33
19783;BME280;10051;40.294;-3.754;2023-02-21T10:24:01;94508.53;;;13.68;43.93
19783;BME280;10051;40.294;-3.754;2023-02-21T10:26:34;94486.81;;;13.72;43.94
19783;BME280;10051;40.294;-3.754;2023-02-21T10:29:06;94482.84;;;13.88;41.86
19783;BME280;10051;40.294;-3.754;2023-02-21T10:31:42;94510.84;;;13.89;42.18
19783;BME280;10051;40.294;-3.754;2023-02-21T10:34:21;94314.56;;;12.75;42.18
19783;BME280;10051;40.294;-3.754;2023-02-21T10:36:50;94458.56;;;13.86;41.68
19783;BME280;10051;40.294;-3.754;2023-02-21T10:39:18;94506.69;;;14.30;41.64
19783;BME280;10051;40.294;-3.754;2023-02-21T10:41:45;94513.34;;;14.27;40.27
19783;BME280;10051;40.294;-3.754;2023-02-21T10:47:22;94488.47;;;14.28;41.04
19783;BME280;10051;40.294;-3.754;2023-02-21T10:50:10;94501.38;;;14.58;40.32
19783;BME280;10051;40.294;-3.754;2023-02-21T10:52:45;94495.88;;;14.68;40.43
19783;BME280;10051;40.294;-3.754;2023-02-21T10:55:20;94453.28;;;14.42;40.29
19783;BME280;10051;40.294;-3.754;2023-02-21T10:57:50;94483.25;;;14.65;40.12
19783;BME280;10051;40.294;-3.754;2023-02-21T11:02:56;94470.72;;;14.85;40.88
19783;BME280;10051;40.294;-3.754;2023-02-21T11:05:27;94390.50;;;14.34;39.72
19783;BME280;10051;40.294;-3.754;2023-02-21T11:08:06;94473.69;;;15.06;39.90
19783;BME280;10051;40.294;-3.754;2023-02-21T11:10:38;94371.66;;;14.49;39.64
19783;BME280;10051;40.294;-3.754;2023-02-21T11:13:14;94440.34;;;15.05;39.24
19783;BME280;10051;40.294;-3.754;2023-02-21T11:15:44;94315.00;;;14.13;37.90
19783;BME280;10051;40.294;-3.754;2023-02-21T11:18:17;94475.63;;;15.14;38.58
19783;BME280;10051;40.294;-3.754;2023-02-21T11:20:45;94441.38;;;14.95;38.63
19783;BME280;10051;40.294;-3.754;2023-02-21T11:23:29;94385.03;;;14.67;38.95
19783;BME280;10051;40.294;-3.754;2023-02-21T11:26:07;94377.69;;;14.64;38.62
19783;BME280;10051;40.294;-3.754;2023-02-21T11:28:44;94407.50;;;15.06;38.58
19783;BME280;10051;40.294;-3.754;2023-02-21T11:31:26;94413.63;;;15.15;38.01
19783;BME280;10051;40.294;-3.754;2023-02-21T11:34:05;94464.16;;;15.73;37.26
19783;BME280;10051;40.294;-3.754;2023-02-21T11:36:37;94352.28;;;15.22;38.56
19783;BME280;10051;40.294;-3.754;2023-02-21T11:41:52;94431.34;;;15.83;37.40
19783;BME280;10051;40.294;-3.754;2023-02-21T11:44:38;94440.81;;;16.07;37.06
19783;BME280;10051;40.294;-3.754;2023-02-21T11:47:22;94444.66;;;16.41;37.19
19783;BME280;10051;40.294;-3.754;2023-02-21T11:50:07;94401.97;;;16.02;37.18
19783;BME280;10051;40.294;-3.754;2023-02-21T11:52:59;94439.81;;;16.26;36.94
19783;BME280;10051;40.294;-3.754;2023-02-21T11:55:26;94434.91;;;16.10;37.51
19783;BME280;10051;40.294;-3.754;2023-02-21T11:58:08;94435.69;;;16.11;37.76
19783;BME280;10051;40.294;-3.754;2023-02-21T12:00:50;94421.66;;;16.19;38.32
19783;BME280;10051;40.294;-3.754;2023-02-21T12:06:34;94421.84;;;16.23;38.10
19783;BME280;10051;40.294;-3.754;2023-02-21T12:09:31;94418.25;;;16.27;38.28
19783;BME280;10051;40.294;-3.754;2023-02-21T12:20:01;94401.81;;;16.83;37.59
19783;BME280;10051;40.294;-3.754;2023-02-21T12:23:05;94393.41;;;16.99;37.32
19783;BME280;10051;40.294;-3.754;2023-02-21T12:26:07;94384.94;;;17.14;37.42
19783;BME280;10051;40.294;-3.754;2023-02-21T12:31:03;94382.06;;;17.46;36.96
19783;BME280;10051;40.294;-3.754;2023-02-21T12:34:01;94382.84;;;17.55;36.36
19783;BME280;10051;40.294;-3.754;2023-02-21T12:40:18;94369.72;;;17.89;35.68
19783;BME280;10051;40.294;-3.754;2023-02-21T12:45:23;94364.94;;;18.21;35.79
19783;BME280;10051;40.294;-3.754;2023-02-21T12:50:38;94347.28;;;18.37;35.85
19783;BME280;10051;40.294;-3.754;2023-02-21T12:53:18;94347.53;;;18.45;35.28
19783;BME280;10051;40.294;-3.754;2023-02-21T12:55:47;94343.41;;;18.56;35.19
19783;BME280;10051;40.294;-3.754;2023-02-21T13:00:56;94315.59;;;18.45;35.16
19783;BME280;10051;40.294;-3.754;2023-02-21T13:08:36;94292.34;;;18.11;35.63
19783;BME280;10051;40.294;-3.754;2023-02-21T13:13:33;94254.69;;;18.01;35.71
19783;BME280;10051;40.294;-3.754;2023-02-21T13:16:02;94304.22;;;18.35;35.62
19783;BME280;10051;40.294;-3.754;2023-02-21T13:18:50;94279.63;;;18.38;35.28
19783;BME280;10051;40.294;-3.754;2023-02-21T13:29:48;94283.81;;;18.82;34.90
19783;BME280;10051;40.294;-3.754;2023-02-21T13:32:17;94282.47;;;18.76;35.37
19783;BME280;10051;40.294;-3.754;2023-02-21T13:34:52;94270.94;;;18.84;35.78
19783;BME280;10051;40.294;-3.754;2023-02-21T13:37:22;94266.13;;;18.98;35.56
19783;BME280;10051;40.294;-3.754;2023-02-21T13:39:56;94220.88;;;18.77;35.19
19783;BME280;10051;40.294;-3.754;2023-02-21T13:42:28;94236.72;;;19.07;35.17
19783;BME280;10051;40.294;-3.754;2023-02-21T13:45:17;94228.94;;;19.02;35.36
19783;BME280;10051;40.294;-3.754;2023-02-21T13:55:36;94198.34;;;18.87;35.11
19783;BME280;10051;40.294;-3.754;2023-02-21T14:08:22;94226.09;;;19.20;34.74
19783;BME280;10051;40.294;-3.754;2023-02-21T14:10:53;94220.22;;;19.14;35.40
19783;BME280;10051;40.294;-3.754;2023-02-21T14:13:50;94198.69;;;19.19;34.84
19783;BME280;10051;40.294;-3.754;2023-02-21T14:16:21;94201.88;;;19.25;34.87
19783;BME280;10051;40.294;-3.754;2023-02-21T14:19:09;94217.22;;;19.40;34.82
19783;BME280;10051;40.294;-3.754;2023-02-21T14:21:49;94144.47;;;19.02;35.49
19783;BME280;10051;40.294;-3.754;2023-02-21T14:24:27;94165.56;;;19.32;35.19
19783;BME280;10051;40.294;-3.754;2023-02-21T14:32:34;94200.91;;;19.54;35.16
19783;BME280;10051;40.294;-3.754;2023-02-21T14:35:12;94201.97;;;19.66;35.39
19783;BME280;10051;40.294;-3.754;2023-02-21T14:38:18;94201.97;;;19.66;35.22
19783;BME280;10051;40.294;-3.754;2023-02-21T14:40:57;94193.78;;;19.58;35.34
19783;BME280;10051;40.294;-3.754;2023-02-21T14:44:18;94199.78;;;19.55;35.53
19783;BME280;10051;40.294;-3.754;2023-02-21T14:49:23;94182.88;;;19.64;35.06
19783;BME280;10051;40.294;-3.754;2023-02-21T15:00:18;94176.91;;;19.42;36.16
19783;BME280;10051;40.294;-3.754;2023-02-21T15:03:10;94174.44;;;19.49;36.10
19783;BME280;10051;40.294;-3.754;2023-02-21T15:05:52;94168.44;;;19.52;36.11
19783;BME280;10051;40.294;-3.754;2023-02-21T15:08:23;94163.13;;;19.52;35.60
19783;BME280;10051;40.294;-3.754;2023-02-21T15:10:52;94121.94;;;19.12;36.15
19783;BME280;10051;40.294;-3.754;2023-02-21T15:13:33;94152.69;;;19.35;36.30
19783;BME280;10051;40.294;-3.754;2023-02-21T15:16:02;94156.69;;;19.28;36.47
19783;BME280;10051;40.294;-3.754;2023-02-21T15:18:38;94156.03;;;19.19;36.70
19783;BME280;10051;40.294;-3.754;2023-02-21T15:21:17;94152.78;;;19.13;36.80
19783;BME280;10051;40.294;-3.754;2023-02-21T15:23:45;94130.09;;;18.70;36.94
19783;BME280;10051;40.294;-3.754;2023-02-21T15:26:23;94153.19;;;18.78;37.19
19783;BME280;10051;40.294;-3.754;2023-02-21T15:29:22;94147.06;;;18.65;37.65